Time;durP1;ratioP1;P1;durP2;ratioP2;P2;SDS_P1;SDS_P2;PMS_P1;PMS_P2;Temp;Humidity;BMP_temperature;BMP_pressure;BME280_temperature;BME280_humidity;BME280_pressure;Samples;Min_cycle;Max_cycle;Signal;HPM_P1;HPM_P2
2022/03/31 00:00:39;;;;;;;;;;;;;;;17.13;46.21;97936.44;4482877;31;34815;-62
2022/03/31 00:03:08;;;;;;;;;;;;;;;17.26;45.43;97934.81;4484828;31;33633;-62
2022/03/31 00:05:36;;;;;;;;;;;;;;;17.08;45.69;97929.94;4481279;31;33931;-63
2022/03/31 00:08:06;;;;;;;;;;;;;;;17.16;45.78;97929.78;4479564;31;35325;-63
2022/03/31 00:10:38;;;;;;;;;;;;;;;17.16;45.72;97927.09;4481413;31;32198;-62
2022/03/31 00:13:06;;;;;;;;;;;;;;;17.39;44.97;97927.59;4477494;31;34136;-63
2022/03/31 00:15:34;;;;;;;;;;;;;;;17.43;45.07;97933.44;4480841;31;34281;-61
2022/03/31 00:18:02;;;;;;;;;;;;;;;17.35;44.83;97929.03;4479374;31;34360;-64
2022/03/31 00:20:30;;;;;;;;;;;;;;;17.41;44.73;97927.41;4477732;31;33582;-61
2022/03/31 00:22:57;;;;;;;;;;;;;;;17.42;44.36;97920.94;4480566;31;33924;-62
2022/03/31 00:25:26;;;;;;;;;;;;;;;17.39;44.15;97927.59;4480398;31;35310;-63
2022/03/31 00:27:56;;;;;;;;;;;;;;;17.00;44.78;97920.16;4479031;31;35507;-64
2022/03/31 00:30:25;;;;;;;;;;;;;;;17.02;44.57;97919.97;4480627;31;33705;-63
2022/03/31 00:32:52;;;;;;;;;;;;;;;17.42;44.04;97918.25;4479410;31;33758;-63
2022/03/31 00:35:20;;;;;;;;;;;;;;;16.81;45.79;97910.91;4480850;31;35453;-62
2022/03/31 00:37:48;;;;;;;;;;;;;;;16.20;47.53;97906.06;4479414;31;35634;-61
2022/03/31 00:40:16;;;;;;;;;;;;;;;16.85;45.58;97903.22;4479655;31;33605;-62
2022/03/31 00:42:44;;;;;;;;;;;;;;;16.91;45.38;97907.81;4479193;31;33585;-63
2022/03/31 00:45:13;;;;;;;;;;;;;;;16.82;45.79;97903.63;4477446;31;34035;-65
2022/03/31 00:47:40;;;;;;;;;;;;;;;16.91;45.16;97911.34;4478834;31;34190;-64
2022/03/31 00:50:09;;;;;;;;;;;;;;;16.94;45.56;97913.66;4476954;31;33530;-62
2022/03/31 00:52:37;;;;;;;;;;;;;;;17.15;45.53;97903.81;4477689;31;37298;-62
2022/03/31 00:55:09;;;;;;;;;;;;;;;16.96;45.53;97898.09;4476877;31;34896;-62
2022/03/31 00:57:36;;;;;;;;;;;;;;;17.10;45.08;97892.75;4477019;31;34333;-64
2022/03/31 01:00:08;;;;;;;;;;;;;;;16.94;45.57;97891.22;4478614;31;31899;-62
2022/03/31 01:02:35;;;;;;;;;;;;;;;17.15;45.31;97880.31;4486696;31;35191;-62
2022/03/31 01:05:04;;;;;;;;;;;;;;;17.16;45.36;97876.56;4480249;31;34308;-63
2022/03/31 01:07:34;;;;;;;;;;;;;;;17.35;44.96;97883.06;4482248;31;34400;-61
2022/03/31 01:10:02;;;;;;;;;;;;;;;17.43;44.78;97874.78;4483625;31;34722;-65
2022/03/31 01:12:30;;;;;;;;;;;;;;;16.99;45.06;97870.66;4469529;32;34292;-65
2022/03/31 01:15:11;;;;;;;;;;;;;;;17.30;44.97;97871.19;4490659;31;34512;-65
2022/03/31 01:17:39;;;;;;;;;;;;;;;17.16;45.56;97864.91;4481472;31;34165;-63
2022/03/31 01:20:08;;;;;;;;;;;;;;;17.29;45.15;97867.66;4481231;31;33701;-64
2022/03/31 01:22:36;;;;;;;;;;;;;;;17.41;44.97;97863.34;4479748;31;33901;-63
2022/03/31 01:25:04;;;;;;;;;;;;;;;17.42;45.32;97862.28;4479804;31;34443;-63
2022/03/31 01:27:35;;;;;;;;;;;;;;;17.56;44.81;97868.56;4479264;31;33885;-64
2022/03/31 01:30:07;;;;;;;;;;;;;;;17.39;44.94;97864.56;4482305;31;34450;-65
2022/03/31 01:32:34;;;;;;;;;;;;;;;17.46;44.86;97854.59;4483887;31;33908;-62
2022/03/31 01:35:03;;;;;;;;;;;;;;;17.32;45.29;97853.72;4495492;31;34191;-62
2022/03/31 01:37:30;;;;;;;;;;;;;;;17.38;45.00;97854.78;4483595;31;34047;-62
2022/03/31 01:39:59;;;;;;;;;;;;;;;17.32;45.65;97851.03;4482727;31;32919;-65
2022/03/31 01:42:27;;;;;;;;;;;;;;;17.26;45.58;97838.31;4479802;31;35390;-65
2022/03/31 01:44:55;;;;;;;;;;;;;;;17.52;45.15;97842.13;4479882;31;32945;-63
2022/03/31 01:47:23;;;;;;;;;;;;;;;17.24;45.83;97835.00;4479839;31;33503;-63
2022/03/31 01:49:51;;;;;;;;;;;;;;;17.33;45.68;97852.69;4478592;31;34276;-64
2022/03/31 01:52:18;;;;;;;;;;;;;;;17.39;45.55;97843.75;4478200;31;33873;-60
2022/03/31 01:54:46;;;;;;;;;;;;;;;17.20;46.13;97847.25;4481867;31;33875;-63
2022/03/31 01:57:13;;;;;;;;;;;;;;;17.42;45.62;97853.34;4478327;31;34225;-63
2022/03/31 01:59:41;;;;;;;;;;;;;;;17.45;45.59;97845.66;4478335;31;33577;-64
2022/03/31 02:02:12;;;;;;;;;;;;;;;17.20;45.70;97836.44;4479606;31;34212;-64
2022/03/31 02:04:40;;;;;;;;;;;;;;;16.99;46.39;97837.41;4467950;31;35151;-60
2022/03/31 02:07:09;;;;;;;;;;;;;;;17.18;45.97;97831.25;4477725;31;34543;-65
2022/03/31 02:09:36;;;;;;;;;;;;;;;16.96;46.16;97835.94;4480555;31;33168;-61
2022/03/31 02:12:04;;;;;;;;;;;;;;;16.88;46.60;97830.69;4483074;31;32499;-64
2022/03/31 02:14:37;;;;;;;;;;;;;;;16.93;46.49;97819.31;4479794;31;35588;-63
2022/03/31 02:17:05;;;;;;;;;;;;;;;16.48;47.72;97819.69;4491122;31;33911;-63
2022/03/31 02:19:32;;;;;;;;;;;;;;;16.40;47.64;97825.22;4480417;31;32279;-61
2022/03/31 02:22:00;;;;;;;;;;;;;;;16.45;47.69;97828.19;4480330;31;34092;-63
2022/03/31 02:24:28;;;;;;;;;;;;;;;16.47;47.47;97819.91;4486334;31;32621;-63
2022/03/31 02:26:55;;;;;;;;;;;;;;;16.82;46.65;97822.56;4480560;31;34630;-63
2022/03/31 02:29:22;;;;;;;;;;;;;;;16.92;46.16;97821.19;4480485;31;34292;-65
2022/03/31 02:31:56;;;;;;;;;;;;;;;16.82;46.64;97827.97;4488969;31;34403;-64
2022/03/31 02:34:24;;;;;;;;;;;;;;;16.99;46.01;97821.19;4478898;31;34135;-63
2022/03/31 02:36:52;;;;;;;;;;;;;;;17.02;45.85;97826.19;4483654;31;35749;-61
2022/03/31 02:39:19;;;;;;;;;;;;;;;16.86;46.23;97818.44;4494124;31;33234;-64
2022/03/31 02:41:47;;;;;;;;;;;;;;;16.47;47.50;97814.50;4480838;31;34625;-62
2022/03/31 02:44:16;;;;;;;;;;;;;;;16.58;47.07;97808.50;4485407;31;34156;-61
2022/03/31 02:46:44;;;;;;;;;;;;;;;16.37;47.77;97808.59;4497968;31;34171;-64
2022/03/31 02:49:11;;;;;;;;;;;;;;;16.37;47.83;97805.87;4497738;31;33500;-61
2022/03/31 02:51:39;;;;;;;;;;;;;;;15.86;48.70;97798.94;4487897;31;34073;-65
2022/03/31 02:56:53;;;;;;;;;;;;;;;16.57;47.23;97793.34;4485092;31;34295;-63
2022/03/31 02:59:21;;;;;;;;;;;;;;;16.70;46.98;97792.56;4493458;31;34626;-61
2022/03/31 03:01:48;;;;;;;;;;;;;;;16.89;46.42;97797.25;4487015;31;34408;-62
2022/03/31 03:04:16;;;;;;;;;;;;;;;16.77;46.66;97791.59;4488411;31;35134;-61
2022/03/31 03:06:44;;;;;;;;;;;;;;;16.88;46.42;97795.56;4492060;31;34354;-62
2022/03/31 03:09:11;;;;;;;;;;;;;;;17.04;46.02;97801.66;4488024;31;33597;-69
2022/03/31 03:11:39;;;;;;;;;;;;;;;17.02;46.11;97798.34;4487633;31;33801;-62
2022/03/31 03:14:06;;;;;;;;;;;;;;;16.98;46.09;97793.34;4484505;31;34093;-63
2022/03/31 03:16:34;;;;;;;;;;;;;;;17.14;45.69;97788.59;4483577;31;34595;-60
2022/03/31 03:19:01;;;;;;;;;;;;;;;17.06;45.96;97781.50;4482154;31;33637;-61
2022/03/31 03:21:29;;;;;;;;;;;;;;;17.09;45.72;97788.38;4476065;31;33951;-60
2022/03/31 03:23:58;;;;;;;;;;;;;;;17.07;45.75;97782.34;4489382;31;34090;-62
2022/03/31 03:26:27;;;;;;;;;;;;;;;17.08;45.58;97775.87;4495181;31;34283;-61
2022/03/31 03:28:55;;;;;;;;;;;;;;;17.09;45.70;97774.87;4483818;31;33725;-61
2022/03/31 03:31:24;;;;;;;;;;;;;;;17.20;45.50;97775.09;4485075;31;34238;-62
2022/03/31 03:33:53;;;;;;;;;;;;;;;16.66;46.76;97781.34;4493957;31;35819;-64
2022/03/31 03:36:22;;;;;;;;;;;;;;;17.08;45.76;97782.16;4496962;31;35735;-63
2022/03/31 03:38:50;;;;;;;;;;;;;;;16.99;45.68;97767.16;4486928;31;34529;-65
2022/03/31 03:41:19;;;;;;;;;;;;;;;17.03;45.79;97768.41;4480962;31;34367;-63
2022/03/31 03:43:48;;;;;;;;;;;;;;;16.85;46.29;97766.25;4486311;31;33986;-63
2022/03/31 03:46:17;;;;;;;;;;;;;;;16.80;46.40;97757.12;4485049;31;33234;-61
2022/03/31 03:48:46;;;;;;;;;;;;;;;17.04;45.73;97767.34;4487795;31;34849;-60
2022/03/31 03:51:15;;;;;;;;;;;;;;;17.16;45.49;97749.50;4488975;31;33399;-62
2022/03/31 03:53:43;;;;;;;;;;;;;;;17.12;45.67;97745.56;4494473;31;34163;-64
2022/03/31 03:56:12;;;;;;;;;;;;;;;17.15;45.43;97753.25;4489000;31;35039;-64
2022/03/31 03:58:40;;;;;;;;;;;;;;;16.82;46.10;97746.91;4485905;31;34198;-63
2022/03/31 04:01:09;;;;;;;;;;;;;;;16.92;45.96;97747.38;4488673;31;33886;-64
2022/03/31 04:03:38;;;;;;;;;;;;;;;16.46;47.29;97746.13;4481741;31;33865;-60
2022/03/31 04:06:07;;;;;;;;;;;;;;;16.70;46.51;97744.78;4480706;31;33262;-64
2022/03/31 04:08:35;;;;;;;;;;;;;;;16.66;46.45;97740.84;4480036;31;34651;-63
2022/03/31 04:11:03;;;;;;;;;;;;;;;16.91;46.04;97741.12;4481197;31;34932;-60
2022/03/31 04:13:32;;;;;;;;;;;;;;;16.99;45.85;97738.25;4481156;31;34441;-62
2022/03/31 04:16:00;;;;;;;;;;;;;;;17.12;45.48;97745.56;4483457;31;35170;-63
2022/03/31 04:18:28;;;;;;;;;;;;;;;17.14;45.39;97743.50;4482447;31;33485;-62
2022/03/31 04:21:01;;;;;;;;;;;;;;;17.14;45.37;97740.78;4492783;31;35694;-61
2022/03/31 04:23:29;;;;;;;;;;;;;;;17.14;45.54;97732.69;4486958;31;34268;-61
2022/03/31 04:25:58;;;;;;;;;;;;;;;17.09;45.80;97737.84;4489021;31;33192;-61
2022/03/31 04:28:27;;;;;;;;;;;;;;;17.16;45.61;97740.56;4488729;31;33418;-61
2022/03/31 04:30:56;;;;;;;;;;;;;;;17.21;45.53;97740.78;4489103;31;34314;-61
2022/03/31 04:33:26;;;;;;;;;;;;;;;17.23;45.41;97742.22;4488240;31;34346;-61
2022/03/31 04:35:55;;;;;;;;;;;;;;;17.11;45.48;97735.78;4483260;31;33742;-64
2022/03/31 04:38:24;;;;;;;;;;;;;;;17.15;45.39;97739.75;4482089;31;34540;-61
2022/03/31 04:40:52;;;;;;;;;;;;;;;17.14;45.59;97743.50;4487412;31;34011;-61
2022/03/31 04:43:21;;;;;;;;;;;;;;;17.20;45.48;97741.81;4491906;31;33304;-60
2022/03/31 04:45:49;;;;;;;;;;;;;;;17.10;45.82;97735.97;4484308;31;34311;-62
2022/03/31 04:48:17;;;;;;;;;;;;;;;17.23;45.41;97733.28;4483159;31;33236;-61
2022/03/31 04:50:46;;;;;;;;;;;;;;;17.03;45.67;97730.56;4482611;31;34210;-62
2022/03/31 04:53:16;;;;;;;;;;;;;;;17.19;45.25;97726.66;4494101;31;33224;-61
2022/03/31 04:55:45;;;;;;;;;;;;;;;17.16;45.20;97725.19;4483302;31;34356;-61
2022/03/31 04:58:15;;;;;;;;;;;;;;;16.84;46.22;97723.25;4482825;31;32697;-61
2022/03/31 05:00:44;;;;;;;;;;;;;;;17.04;45.71;97720.59;4484272;31;34068;-62
2022/03/31 05:03:13;;;;;;;;;;;;;;;16.90;45.89;97730.53;4489008;31;34419;-62
2022/03/31 05:05:43;;;;;;;;;;;;;;;16.72;46.05;97723.78;4494361;31;35100;-65
2022/03/31 05:08:13;;;;;;;;;;;;;;;16.61;46.83;97734.38;4497571;31;33756;-63
2022/03/31 05:10:41;;;;;;;;;;;;;;;16.67;46.81;97728.16;4497586;31;32713;-63
2022/03/31 05:13:10;;;;;;;;;;;;;;;16.57;46.93;97730.41;4483024;31;34173;-62
2022/03/31 05:15:39;;;;;;;;;;;;;;;16.78;46.38;97727.59;4488478;31;33466;-63
2022/03/31 05:18:09;;;;;;;;;;;;;;;16.45;47.01;97722.03;4495049;31;33598;-62
2022/03/31 05:20:39;;;;;;;;;;;;;;;16.45;47.37;97727.44;4485467;31;33214;-62
2022/03/31 05:23:08;;;;;;;;;;;;;;;15.79;48.90;97731.44;4483258;31;34467;-62
2022/03/31 05:25:38;;;;;;;;;;;;;;;15.61;49.64;97728.38;4498854;31;33231;-61
2022/03/31 05:28:08;;;;;;;;;;;;;;;15.86;49.12;97723.41;4482675;31;32374;-62
2022/03/31 05:30:38;;;;;;;;;;;;;;;16.35;48.08;97727.00;4493902;31;33987;-62
2022/03/31 05:33:08;;;;;;;;;;;;;;;16.49;47.75;97726.00;4494707;31;34208;-63
2022/03/31 05:35:40;;;;;;;;;;;;;;;16.34;48.20;97722.59;4491121;31;33909;-64
2022/03/31 05:38:09;;;;;;;;;;;;;;;16.14;48.59;97723.34;4488393;31;32122;-64
2022/03/31 05:40:40;;;;;;;;;;;;;;;16.50;47.81;97723.13;4483098;31;32829;-61
2022/03/31 05:43:09;;;;;;;;;;;;;;;16.48;48.30;97719.78;4488628;31;34369;-63
2022/03/31 05:45:43;;;;;;;;;;;;;;;16.61;48.17;97712.75;4494323;31;34253;-62
2022/03/31 05:48:11;;;;;;;;;;;;;;;16.47;48.51;97722.69;4493479;31;34580;-63
2022/03/31 05:50:40;;;;;;;;;;;;;;;16.45;48.22;97712.06;4482694;31;36223;-62
2022/03/31 05:53:08;;;;;;;;;;;;;;;16.37;48.65;97716.81;4496279;31;32848;-62
2022/03/31 05:55:36;;;;;;;;;;;;;;;16.51;48.29;97718.53;4497709;31;34472;-61
2022/03/31 05:58:05;;;;;;;;;;;;;;;16.45;48.70;97724.75;4492040;31;33608;-60
2022/03/31 06:00:34;;;;;;;;;;;;;;;16.46;48.76;97723.69;4495266;31;34081;-61
2022/03/31 06:03:02;;;;;;;;;;;;;;;16.74;47.87;97726.31;4492041;31;35139;-63
2022/03/31 06:05:31;;;;;;;;;;;;;;;16.66;48.18;97730.03;4487415;31;34099;-62
2022/03/31 06:07:59;;;;;;;;;;;;;;;16.53;48.48;97722.72;4495787;31;34674;-61
2022/03/31 06:10:27;;;;;;;;;;;;;;;16.57;48.25;97725.00;4490462;31;35700;-60
2022/03/31 06:12:56;;;;;;;;;;;;;;;16.62;48.00;97728.75;4494614;31;34102;-61
2022/03/31 06:15:24;;;;;;;;;;;;;;;16.66;47.51;97726.47;4483146;31;34250;-63
2022/03/31 06:17:53;;;;;;;;;;;;;;;16.76;47.09;97725.09;4483385;31;32369;-61
2022/03/31 06:20:21;;;;;;;;;;;;;;;16.54;47.62;97732.47;4492160;31;34897;-63
2022/03/31 06:22:49;;;;;;;;;;;;;;;16.56;47.58;97729.56;4486606;31;34450;-61
2022/03/31 06:25:18;;;;;;;;;;;;;;;16.72;47.21;97728.38;4491330;31;35240;-61
2022/03/31 06:27:50;;;;;;;;;;;;;;;16.06;49.32;97740.53;4497452;31;34719;-62
2022/03/31 06:30:22;;;;;;;;;;;;;;;16.34;49.40;97742.34;4492388;31;32986;-61
2022/03/31 06:32:51;;;;;;;;;;;;;;;16.20;50.04;97748.69;4481826;31;32010;-65
2022/03/31 06:35:20;;;;;;;;;;;;;;;16.20;49.82;97751.41;4481788;31;33894;-61
2022/03/31 06:37:48;;;;;;;;;;;;;;;15.34;52.39;97756.94;4492105;31;33555;-62
2022/03/31 06:40:16;;;;;;;;;;;;;;;15.40;52.70;97756.19;4487063;31;32531;-61
2022/03/31 06:42:45;;;;;;;;;;;;;;;15.09;54.18;97751.13;4483926;31;33200;-62
2022/03/31 06:45:15;;;;;;;;;;;;;;;15.77;52.61;97759.63;4493051;31;34343;-64
2022/03/31 06:48:00;;;;;;;;;;;;;;;15.53;53.24;97752.75;4493049;31;33276;-65
2022/03/31 06:50:30;;;;;;;;;;;;;;;14.79;55.31;97767.37;4494008;31;35237;-63
2022/03/31 06:52:59;;;;;;;;;;;;;;;15.01;55.19;97762.84;4483921;31;33891;-62
2022/03/31 06:55:28;;;;;;;;;;;;;;;14.99;55.23;97769.44;4481585;31;34455;-63
2022/03/31 06:57:56;;;;;;;;;;;;;;;13.75;59.16;97772.78;4485430;31;33523;-62
2022/03/31 07:00:24;;;;;;;;;;;;;;;14.77;56.42;97774.81;4481284;31;32968;-62
2022/03/31 07:02:54;;;;;;;;;;;;;;;14.96;55.90;97767.13;4496230;31;34240;-62
2022/03/31 07:05:22;;;;;;;;;;;;;;;15.41;54.73;97767.78;4498390;31;34253;-61
2022/03/31 07:07:50;;;;;;;;;;;;;;;15.56;53.66;97769.38;4487551;31;33655;-62
2022/03/31 07:10:19;;;;;;;;;;;;;;;15.20;54.53;97755.16;4481713;32;33979;-62
2022/03/31 07:12:46;;;;;;;;;;;;;;;15.56;53.70;97757.75;4488983;31;34200;-63
2022/03/31 07:15:15;;;;;;;;;;;;;;;15.54;53.98;97754.44;4492670;31;35100;-62
2022/03/31 07:17:44;;;;;;;;;;;;;;;15.58;54.09;97753.03;4482324;31;32590;-61
2022/03/31 07:20:11;;;;;;;;;;;;;;;15.18;54.80;97751.81;4482357;32;33847;-61
2022/03/31 07:22:45;;;;;;;;;;;;;;;15.41;54.70;97746.22;4482216;31;32967;-62
2022/03/31 07:25:16;;;;;;;;;;;;;;;14.99;55.72;97740.69;4483732;31;33397;-61
2022/03/31 07:27:46;;;;;;;;;;;;;;;15.31;55.41;97744.72;4483152;31;34349;-61
2022/03/31 07:30:16;;;;;;;;;;;;;;;15.23;55.62;97744.84;4485922;31;33017;-62
2022/03/31 07:32:50;;;;;;;;;;;;;;;14.93;56.22;97749.53;4487250;31;34442;-61
2022/03/31 07:35:20;;;;;;;;;;;;;;;14.88;56.88;97747.38;4490703;31;34116;-63
2022/03/31 07:37:49;;;;;;;;;;;;;;;14.72;57.48;97741.41;4488298;31;32474;-62
2022/03/31 07:40:20;;;;;;;;;;;;;;;14.08;59.67;97740.16;4486057;31;33897;-61
2022/03/31 07:42:48;;;;;;;;;;;;;;;14.10;59.88;97748.88;4483996;31;34110;-62
2022/03/31 07:45:17;;;;;;;;;;;;;;;14.32;59.19;97752.50;4490815;31;33110;-62
2022/03/31 07:47:47;;;;;;;;;;;;;;;14.38;58.99;97754.44;4488085;31;32537;-61
2022/03/31 07:50:17;;;;;;;;;;;;;;;14.50;58.78;97744.00;4494637;31;34066;-62
2022/03/31 07:52:46;;;;;;;;;;;;;;;14.15;59.66;97746.44;4481482;31;33139;-62
2022/03/31 07:55:16;;;;;;;;;;;;;;;14.41;59.13;97743.28;4485719;31;33640;-62
2022/03/31 07:57:46;;;;;;;;;;;;;;;14.60;58.06;97741.03;4489010;31;32298;-62
2022/03/31 08:00:16;;;;;;;;;;;;;;;14.86;57.36;97735.97;4488721;31;33241;-61
2022/03/31 08:02:51;;;;;;;;;;;;;;;14.99;57.14;97739.81;4490457;31;34692;-63
2022/03/31 08:05:23;;;;;;;;;;;;;;;15.16;57.02;97741.25;4485150;31;33054;-62
2022/03/31 08:07:53;;;;;;;;;;;;;;;14.71;57.80;97745.13;4480503;31;33635;-62
2022/03/31 08:10:21;;;;;;;;;;;;;;;14.62;58.38;97730.94;4481879;31;33928;-61
2022/03/31 08:12:49;;;;;;;;;;;;;;;14.51;58.83;97737.66;4482902;31;35882;-66
2022/03/31 08:15:17;;;;;;;;;;;;;;;14.67;57.96;97729.34;4484546;31;34278;-65
2022/03/31 08:17:47;;;;;;;;;;;;;;;14.64;58.61;97726.22;4488962;31;33655;-64
2022/03/31 08:20:16;;;;;;;;;;;;;;;14.50;58.68;97727.03;4491362;31;34046;-65
2022/03/31 08:22:45;;;;;;;;;;;;;;;14.46;59.26;97718.50;4485212;31;35755;-62
2022/03/31 08:25:14;;;;;;;;;;;;;;;14.38;59.15;97721.28;4485326;31;35369;-62
2022/03/31 08:27:43;;;;;;;;;;;;;;;14.36;60.02;97709.88;4485233;31;33359;-64
2022/03/31 08:30:13;;;;;;;;;;;;;;;14.75;58.78;97706.84;4480391;31;35571;-61
2022/03/31 08:32:43;;;;;;;;;;;;;;;14.25;60.68;97696.91;4484979;31;34661;-61
2022/03/31 08:35:12;;;;;;;;;;;;;;;14.32;60.25;97687.91;4488320;31;33414;-63
2022/03/31 08:37:43;;;;;;;;;;;;;;;14.68;59.12;97692.47;4488337;31;33418;-62
2022/03/31 08:40:20;;;;;;;;;;;;;;;14.33;60.97;97696.81;4488249;31;33039;-62
2022/03/31 08:42:54;;;;;;;;;;;;;;;14.82;58.87;97694.28;4486544;31;33804;-63
2022/03/31 08:45:28;;;;;;;;;;;;;;;14.48;59.82;97691.37;4485792;31;33417;-61
2022/03/31 08:48:05;;;;;;;;;;;;;;;14.39;60.39;97690.69;4475565;31;32349;-69
2022/03/31 08:50:39;;;;;;;;;;;;;;;14.98;58.99;97687.81;4486973;31;34027;-62
2022/03/31 08:53:16;;;;;;;;;;;;;;;14.92;59.23;97688.56;4485605;31;32952;-64
2022/03/31 08:55:54;;;;;;;;;;;;;;;14.67;59.80;97688.97;4482570;31;34032;-64
2022/03/31 08:58:35;;;;;;;;;;;;;;;13.95;62.94;97678.09;4487148;31;33788;-64
2022/03/31 09:01:08;;;;;;;;;;;;;;;14.37;61.50;97671.19;4495654;31;34791;-63
2022/03/31 09:03:41;;;;;;;;;;;;;;;13.81;63.67;97685.16;4492773;31;35521;-63
2022/03/31 09:06:28;;;;;;;;;;;;;;;14.67;61.04;97674.66;4496900;31;34214;-62
2022/03/31 09:09:02;;;;;;;;;;;;;;;14.06;63.02;97666.88;4495301;31;32277;-64
2022/03/31 09:11:37;;;;;;;;;;;;;;;14.72;61.65;97660.63;4484146;31;32897;-62
2022/03/31 09:14:26;;;;;;;;;;;;;;;14.64;61.69;97659.72;4490890;31;34030;-65
2022/03/31 09:17:11;;;;;;;;;;;;;;;14.54;62.17;97661.91;4482907;31;34149;-63
2022/03/31 09:19:40;;;;;;;;;;;;;;;14.82;60.97;97656.56;4492773;31;33647;-63
2022/03/31 09:22:09;;;;;;;;;;;;;;;14.10;63.75;97641.28;4482438;31;34184;-63
2022/03/31 09:24:39;;;;;;;;;;;;;;;14.29;63.33;97641.72;4484492;31;35297;-64
2022/03/31 09:27:13;;;;;;;;;;;;;;;14.26;63.77;97637.53;4488142;31;33216;-64
2022/03/31 09:29:48;;;;;;;;;;;;;;;14.70;62.36;97641.13;4485759;31;31979;-64
2022/03/31 09:32:27;;;;;;;;;;;;;;;14.48;62.93;97632.16;4481903;31;33516;-63
2022/03/31 09:35:06;;;;;;;;;;;;;;;13.65;65.13;97637.78;4496217;31;33152;-64
2022/03/31 09:37:51;;;;;;;;;;;;;;;13.63;65.09;97639.81;4487036;31;33204;-63
2022/03/31 09:40:39;;;;;;;;;;;;;;;13.64;65.62;97637.97;4486988;31;32448;-63
2022/03/31 09:43:18;;;;;;;;;;;;;;;13.41;66.69;97633.50;4491145;31;34283;-62
2022/03/31 09:45:50;;;;;;;;;;;;;;;13.42;66.60;97629.81;4492197;31;34073;-62
2022/03/31 09:48:25;;;;;;;;;;;;;;;13.32;66.76;97621.16;4484790;32;34175;-64
2022/03/31 09:51:00;;;;;;;;;;;;;;;13.12;67.04;97622.69;4486106;31;33361;-63
2022/03/31 09:53:30;;;;;;;;;;;;;;;12.34;69.51;97630.84;4474391;31;33581;-62
2022/03/31 09:56:05;;;;;;;;;;;;;;;12.41;69.88;97635.50;4473604;32;33119;-63
2022/03/31 09:58:38;;;;;;;;;;;;;;;12.37;70.17;97620.78;4485873;31;33141;-63
2022/03/31 10:01:06;;;;;;;;;;;;;;;12.45;70.12;97626.09;4487693;31;33270;-63
2022/03/31 10:03:34;;;;;;;;;;;;;;;12.41;70.31;97628.28;4486417;31;35246;-63
2022/03/31 10:06:05;;;;;;;;;;;;;;;12.32;70.90;97621.31;4476794;31;33715;-64
2022/03/31 10:08:37;;;;;;;;;;;;;;;12.46;70.66;97617.88;4488154;31;34596;-63
2022/03/31 10:11:09;;;;;;;;;;;;;;;12.43;70.56;97618.22;4493228;31;34048;-62
2022/03/31 10:13:37;;;;;;;;;;;;;;;12.47;69.76;97610.66;4478938;31;34946;-62
2022/03/31 10:16:06;;;;;;;;;;;;;;;12.77;69.72;97611.59;4489477;31;34415;-64
2022/03/31 10:18:33;;;;;;;;;;;;;;;13.14;68.44;97612.62;4473220;31;34431;-63
2022/03/31 10:21:01;;;;;;;;;;;;;;;13.23;67.91;97601.59;4480895;32;33392;-62
2022/03/31 10:26:25;;;;;;;;;;;;;;;13.54;66.74;97606.00;4487761;31;34170;-62
2022/03/31 10:29:08;;;;;;;;;;;;;;;13.88;65.11;97600.03;4490475;31;34665;-62
2022/03/31 10:31:45;;;;;;;;;;;;;;;13.82;65.65;97598.09;4491514;31;32314;-62
2022/03/31 10:34:14;;;;;;;;;;;;;;;13.83;65.84;97599.75;4491725;31;35318;-63
2022/03/31 10:36:45;;;;;;;;;;;;;;;14.03;65.02;97604.53;4486428;31;34020;-63
2022/03/31 10:39:18;;;;;;;;;;;;;;;13.54;66.61;97611.38;4483127;31;34490;-62
2022/03/31 10:41:46;;;;;;;;;;;;;;;13.73;66.47;97597.34;4485256;31;34019;-63
2022/03/31 10:44:15;;;;;;;;;;;;;;;13.49;66.85;97597.66;4485370;31;34382;-62
2022/03/31 10:46:44;;;;;;;;;;;;;;;13.48;66.91;97596.84;4487901;31;34552;-62
2022/03/31 10:49:13;;;;;;;;;;;;;;;13.21;68.22;97581.31;4483854;31;34429;-64
2022/03/31 10:51:41;;;;;;;;;;;;;;;13.49;67.71;97568.94;4491227;31;33427;-62
2022/03/31 10:54:11;;;;;;;;;;;;;;;13.57;67.85;97562.63;4490034;31;32807;-63
2022/03/31 10:56:40;;;;;;;;;;;;;;;13.32;68.39;97558.53;4483816;31;34154;-65
2022/03/31 10:59:07;;;;;;;;;;;;;;;13.33;69.36;97554.87;4468980;31;34501;-63
2022/03/31 11:01:36;;;;;;;;;;;;;;;13.70;67.29;97552.03;4488716;31;33173;-65
2022/03/31 11:04:06;;;;;;;;;;;;;;;12.92;71.38;97552.56;4483059;31;35283;-63
2022/03/31 11:06:46;;;;;;;;;;;;;;;13.62;69.41;97551.31;4484843;31;34681;-63
2022/03/31 11:09:27;;;;;;;;;;;;;;;13.62;69.07;97545.94;4494109;31;35512;-63
2022/03/31 11:11:55;;;;;;;;;;;;;;;13.41;69.71;97536.78;4483963;31;33584;-63
2022/03/31 11:14:23;;;;;;;;;;;;;;;13.21;70.27;97541.84;4483696;31;34160;-63
2022/03/31 11:16:51;;;;;;;;;;;;;;;12.71;72.96;97545.19;4485129;31;34280;-65
2022/03/31 11:19:22;;;;;;;;;;;;;;;13.09;71.67;97529.88;4485642;31;34607;-61
2022/03/31 11:21:49;;;;;;;;;;;;;;;12.63;73.33;97539.94;4485522;31;34946;-64
2022/03/31 11:24:22;;;;;;;;;;;;;;;12.86;73.12;97529.97;4487328;31;35242;-61
2022/03/31 11:26:50;;;;;;;;;;;;;;;12.94;72.81;97526.38;4483900;31;33955;-62
2022/03/31 11:29:19;;;;;;;;;;;;;;;12.43;74.21;97527.00;4486240;31;34605;-62
2022/03/31 11:31:47;;;;;;;;;;;;;;;12.17;75.83;97515.81;4487235;31;33753;-61
2022/03/31 11:34:23;;;;;;;;;;;;;;;12.29;75.52;97523.25;4486857;31;34043;-62
2022/03/31 11:36:51;;;;;;;;;;;;;;;12.50;74.40;97519.06;4486214;31;34626;-63
2022/03/31 11:39:20;;;;;;;;;;;;;;;12.54;73.91;97517.69;4496299;31;34311;-62
2022/03/31 11:41:49;;;;;;;;;;;;;;;12.60;73.11;97519.66;4489821;31;34527;-63
2022/03/31 11:44:21;;;;;;;;;;;;;;;12.81;72.69;97516.28;4489106;31;33993;-64
2022/03/31 11:46:49;;;;;;;;;;;;;;;12.83;72.57;97508.84;4484369;31;34274;-62
2022/03/31 11:49:17;;;;;;;;;;;;;;;13.11;71.41;97511.75;4490196;31;34734;-63
2022/03/31 11:51:52;;;;;;;;;;;;;;;13.00;71.99;97510.38;4488349;31;34739;-63
2022/03/31 11:54:20;;;;;;;;;;;;;;;13.08;71.75;97500.53;4476044;32;34715;-60
2022/03/31 11:56:48;;;;;;;;;;;;;;;12.93;71.67;97503.22;4475182;32;35560;-61
2022/03/31 11:59:22;;;;;;;;;;;;;;;13.17;70.76;97494.06;4460000;32;33868;-61
2022/03/31 12:01:49;;;;;;;;;;;;;;;13.28;70.17;97488.25;4476636;32;33189;-61
2022/03/31 12:04:21;;;;;;;;;;;;;;;13.18;70.66;97488.50;4456131;32;34068;-63
2022/03/31 12:06:51;;;;;;;;;;;;;;;12.85;71.24;97476.47;4469583;32;34467;-63
2022/03/31 12:09:19;;;;;;;;;;;;;;;12.48;73.08;97470.94;4462975;32;34764;-62
2022/03/31 12:11:48;;;;;;;;;;;;;;;12.98;71.80;97471.28;4479095;32;33606;-62
2022/03/31 12:14:16;;;;;;;;;;;;;;;12.54;73.29;97451.44;4478728;32;35327;-63
2022/03/31 12:16:45;;;;;;;;;;;;;;;12.22;74.63;97447.22;4478457;32;34499;-61
2022/03/31 12:19:12;;;;;;;;;;;;;;;11.96;75.34;97452.12;4477876;32;32647;-63
2022/03/31 12:21:47;;;;;;;;;;;;;;;12.50;73.62;97455.50;4478649;32;30944;-62
2022/03/31 12:24:15;;;;;;;;;;;;;;;12.94;71.56;97456.56;4474405;32;34730;-63
2022/03/31 12:26:56;;;;;;;;;;;;;;;12.78;72.09;97445.00;4474914;32;35416;-63
2022/03/31 12:29:24;;;;;;;;;;;;;;;13.17;70.93;97443.84;4475383;32;33854;-62
2022/03/31 12:32:08;;;;;;;;;;;;;;;12.93;70.53;97444.97;4465517;32;31990;-62
2022/03/31 12:34:37;;;;;;;;;;;;;;;13.23;69.94;97440.44;4471521;32;34381;-63
2022/03/31 12:37:06;;;;;;;;;;;;;;;12.73;71.32;97447.37;4473090;32;34340;-63
2022/03/31 12:39:41;;;;;;;;;;;;;;;12.74;72.05;97441.00;4471721;32;34248;-65
2022/03/31 12:42:10;;;;;;;;;;;;;;;12.30;74.19;97444.47;4479768;32;34418;-62
2022/03/31 12:44:38;;;;;;;;;;;;;;;12.48;73.98;97437.91;4479406;32;33103;-63
2022/03/31 12:47:06;;;;;;;;;;;;;;;12.92;71.28;97442.50;4477944;32;34514;-63
2022/03/31 12:49:34;;;;;;;;;;;;;;;12.30;73.97;97449.84;4479558;32;34307;-64
2022/03/31 12:52:12;;;;;;;;;;;;;;;12.50;73.44;97434.03;4473477;32;33710;-62
2022/03/31 12:54:46;;;;;;;;;;;;;;;12.47;73.58;97422.84;4477185;32;32735;-65
2022/03/31 12:57:21;;;;;;;;;;;;;;;12.15;74.98;97413.25;4476429;32;34642;-64
2022/03/31 12:59:59;;;;;;;;;;;;;;;12.54;73.77;97411.19;4472523;32;34561;-64
2022/03/31 13:02:36;;;;;;;;;;;;;;;12.27;75.31;97417.19;4476532;32;33135;-63
2022/03/31 13:05:04;;;;;;;;;;;;;;;11.99;75.82;97420.44;4475913;32;34446;-63
2022/03/31 13:07:32;;;;;;;;;;;;;;;12.61;74.20;97427.38;4476969;32;34078;-63